sensor_id;sensor_type;location;lat;lon;timestamp;pressure;altitude;pressure_sealevel;temperature;humidity
68508;BME280;55510;49.560;19.090;2022-11-12T00:01:03;98077.06;;;0.37;100.00
68508;BME280;55510;49.560;19.090;2022-11-12T00:04:06;98073.75;;;0.35;100.00
68508;BME280;55510;49.560;19.090;2022-11-12T00:07:08;98071.81;;;0.37;100.00
68508;BME280;55510;49.560;19.090;2022-11-12T00:10:09;98075.13;;;0.39;100.00
68508;BME280;55510;49.560;19.090;2022-11-12T00:13:10;98080.09;;;0.42;100.00
68508;BME280;55510;49.560;19.090;2022-11-12T00:16:11;98069.22;;;0.47;100.00
68508;BME280;55510;49.560;19.090;2022-11-12T00:19:11;98073.34;;;0.50;100.00
68508;BME280;55510;49.560;19.090;2022-11-12T00:22:12;98067.97;;;0.51;100.00
68508;BME280;55510;49.560;19.090;2022-11-12T00:25:13;98072.13;;;0.54;100.00
68508;BME280;55510;49.560;19.090;2022-11-12T00:28:13;98075.97;;;0.50;100.00
68508;BME280;55510;49.560;19.090;2022-11-12T00:31:14;98081.22;;;0.50;100.00
68508;BME280;55510;49.560;19.090;2022-11-12T00:34:15;98083.81;;;0.40;100.00
68508;BME280;55510;49.560;19.090;2022-11-12T00:37:15;98082.03;;;0.31;100.00
68508;BME280;55510;49.560;19.090;2022-11-12T00:40:16;98080.06;;;0.23;100.00
68508;BME280;55510;49.560;19.090;2022-11-12T00:43:17;98077.31;;;0.14;100.00
68508;BME280;55510;49.560;19.090;2022-11-12T00:46:18;98086.25;;;0.12;100.00
68508;BME280;55510;49.560;19.090;2022-11-12T00:49:18;98074.41;;;0.08;100.00
68508;BME280;55510;49.560;19.090;2022-11-12T00:52:19;98076.91;;;0.09;100.00
68508;BME280;55510;49.560;19.090;2022-11-12T00:55:20;98075.66;;;0.13;100.00
68508;BME280;55510;49.560;19.090;2022-11-12T00:58:21;98074.41;;;0.18;100.00
68508;BME280;55510;49.560;19.090;2022-11-12T01:01:21;98074.41;;;0.18;100.00
68508;BME280;55510;49.560;19.090;2022-11-12T01:04:22;98078.69;;;0.19;100.00
68508;BME280;55510;49.560;19.090;2022-11-12T01:07:23;98075.91;;;0.20;100.00
68508;BME280;55510;49.560;19.090;2022-11-12T01:10:23;98070.69;;;0.20;100.00
68508;BME280;55510;49.560;19.090;2022-11-12T01:13:24;98072.63;;;0.18;100.00
68508;BME280;55510;49.560;19.090;2022-11-12T01:16:29;98062.41;;;0.15;100.00
68508;BME280;55510;49.560;19.090;2022-11-12T01:19:30;98072.88;;;0.15;100.00
68508;BME280;55510;49.560;19.090;2022-11-12T01:22:31;98062.97;;;0.19;100.00
68508;BME280;55510;49.560;19.090;2022-11-12T01:25:31;98067.81;;;0.23;100.00
68508;BME280;55510;49.560;19.090;2022-11-12T01:28:32;98069.31;;;0.26;100.00
68508;BME280;55510;49.560;19.090;2022-11-12T01:31:36;98067.66;;;0.25;100.00
68508;BME280;55510;49.560;19.090;2022-11-12T01:34:37;98071.53;;;0.21;100.00
68508;BME280;55510;49.560;19.090;2022-11-12T01:37:38;98068.75;;;0.12;100.00
68508;BME280;55510;49.560;19.090;2022-11-12T01:40:39;98066.53;;;0.08;100.00
68508;BME280;55510;49.560;19.090;2022-11-12T01:43:39;98063.13;;;0.07;100.00
68508;BME280;55510;49.560;19.090;2022-11-12T01:50:26;98067.66;;;0.15;100.00
68508;BME280;55510;49.560;19.090;2022-11-12T01:53:33;98065.72;;;0.17;100.00
68508;BME280;55510;49.560;19.090;2022-11-12T01:56:35;98070.44;;;0.23;100.00
68508;BME280;55510;49.560;19.090;2022-11-12T01:59:40;98063.25;;;0.16;100.00
68508;BME280;55510;49.560;19.090;2022-11-12T02:02:47;98072.75;;;0.07;100.00
68508;BME280;55510;49.560;19.090;2022-11-12T02:05:55;98068.16;;;-0.01;100.00
68508;BME280;55510;49.560;19.090;2022-11-12T02:08:56;98070.38;;;-0.06;100.00
68508;BME280;55510;49.560;19.090;2022-11-12T02:11:58;98061.13;;;-0.10;100.00
68508;BME280;55510;49.560;19.090;2022-11-12T02:14:59;98069.94;;;-0.11;100.00
68508;BME280;55510;49.560;19.090;2022-11-12T02:18:00;98072.56;;;-0.11;100.00
68508;BME280;55510;49.560;19.090;2022-11-12T02:21:04;98073.53;;;-0.12;100.00
68508;BME280;55510;49.560;19.090;2022-11-12T02:27:26;98065.66;;;-0.12;100.00
68508;BME280;55510;49.560;19.090;2022-11-12T02:30:39;98068.72;;;-0.17;100.00
68508;BME280;55510;49.560;19.090;2022-11-12T02:33:39;98066.91;;;-0.17;100.00
68508;BME280;55510;49.560;19.090;2022-11-12T02:36:40;98064.56;;;-0.20;100.00
68508;BME280;55510;49.560;19.090;2022-11-12T02:39:41;98076.38;;;-0.25;100.00
68508;BME280;55510;49.560;19.090;2022-11-12T02:42:41;98070.00;;;-0.33;100.00
68508;BME280;55510;49.560;19.090;2022-11-12T02:45:42;98063.38;;;-0.37;100.00
68508;BME280;55510;49.560;19.090;2022-11-12T02:48:43;98068.06;;;-0.40;100.00
68508;BME280;55510;49.560;19.090;2022-11-12T02:51:44;98063.13;;;-0.43;100.00
68508;BME280;55510;49.560;19.090;2022-11-12T02:54:45;98062.28;;;-0.44;100.00
68508;BME280;55510;49.560;19.090;2022-11-12T02:57:45;98063.13;;;-0.43;100.00
68508;BME280;55510;49.560;19.090;2022-11-12T03:00:46;98065.97;;;-0.47;100.00
68508;BME280;55510;49.560;19.090;2022-11-12T03:03:47;98060.31;;;-0.52;100.00
68508;BME280;55510;49.560;19.090;2022-11-12T03:06:48;98059.88;;;-0.57;100.00
68508;BME280;55510;49.560;19.090;2022-11-12T03:09:49;98069.91;;;-0.62;100.00
68508;BME280;55510;49.560;19.090;2022-11-12T03:12:49;98065.88;;;-0.66;100.00
68508;BME280;55510;49.560;19.090;2022-11-12T03:15:58;98065.47;;;-0.71;100.00
68508;BME280;55510;49.560;19.090;2022-11-12T03:18:59;98073.56;;;-0.75;100.00
68508;BME280;55510;49.560;19.090;2022-11-12T03:21:59;98075.47;;;-0.77;100.00
68508;BME280;55510;49.560;19.090;2022-11-12T03:25:00;98081.66;;;-0.78;100.00
68508;BME280;55510;49.560;19.090;2022-11-12T03:28:03;98074.78;;;-0.79;100.00
68508;BME280;55510;49.560;19.090;2022-11-12T03:31:04;98067.91;;;-0.80;100.00
68508;BME280;55510;49.560;19.090;2022-11-12T03:34:05;98073.94;;;-0.79;100.00
68508;BME280;55510;49.560;19.090;2022-11-12T03:37:06;98076.44;;;-0.78;100.00
68508;BME280;55510;49.560;19.090;2022-11-12T03:40:09;98072.03;;;-0.77;100.00
68508;BME280;55510;49.560;19.090;2022-11-12T03:43:09;98069.56;;;-0.79;100.00
68508;BME280;55510;49.560;19.090;2022-11-12T03:46:10;98062.66;;;-0.80;100.00
68508;BME280;55510;49.560;19.090;2022-11-12T03:49:11;98065.41;;;-0.81;100.00
68508;BME280;55510;49.560;19.090;2022-11-12T03:52:11;98055.09;;;-0.83;100.00
68508;BME280;55510;49.560;19.090;2022-11-12T03:55:14;98050.94;;;-0.85;100.00
68508;BME280;55510;49.560;19.090;2022-11-12T03:58:15;98048.56;;;-0.89;100.00
68508;BME280;55510;49.560;19.090;2022-11-12T04:01:15;98048.84;;;-0.92;100.00
68508;BME280;55510;49.560;19.090;2022-11-12T04:04:16;98056.09;;;-0.95;100.00
68508;BME280;55510;49.560;19.090;2022-11-12T04:07:17;98047.44;;;-0.96;100.00
68508;BME280;55510;49.560;19.090;2022-11-12T04:10:36;98053.47;;;-0.95;100.00
68508;BME280;55510;49.560;19.090;2022-11-12T04:13:37;98053.47;;;-0.95;100.00
68508;BME280;55510;49.560;19.090;2022-11-12T04:16:37;98055.41;;;-0.97;100.00
68508;BME280;55510;49.560;19.090;2022-11-12T04:19:57;98058.28;;;-1.00;100.00
68508;BME280;55510;49.560;19.090;2022-11-12T04:23:16;98058.41;;;-1.02;100.00
68508;BME280;55510;49.560;19.090;2022-11-12T04:26:17;98052.75;;;-1.07;100.00
68508;BME280;55510;49.560;19.090;2022-11-12T04:29:23;98053.94;;;-1.11;100.00
68508;BME280;55510;49.560;19.090;2022-11-12T04:32:53;98050.50;;;-1.12;100.00
68508;BME280;55510;49.560;19.090;2022-11-12T04:35:54;98047.91;;;-1.12;100.00
68508;BME280;55510;49.560;19.090;2022-11-12T04:38:55;98046.34;;;-1.14;100.00
68508;BME280;55510;49.560;19.090;2022-11-12T04:41:56;98043.75;;;-1.14;100.00
68508;BME280;55510;49.560;19.090;2022-11-12T04:45:16;98048.41;;;-1.18;100.00
68508;BME280;55510;49.560;19.090;2022-11-12T04:48:16;98043.19;;;-1.18;100.00
68508;BME280;55510;49.560;19.090;2022-11-12T04:51:17;98036.56;;;-1.22;100.00
68508;BME280;55510;49.560;19.090;2022-11-12T04:54:36;98035.88;;;-1.24;100.00
68508;BME280;55510;49.560;19.090;2022-11-12T04:57:38;98038.47;;;-1.24;100.00
68508;BME280;55510;49.560;19.090;2022-11-12T05:00:38;98030.63;;;-1.24;100.00
68508;BME280;55510;49.560;19.090;2022-11-12T05:03:39;98031.19;;;-1.21;100.00
68508;BME280;55510;49.560;19.090;2022-11-12T05:06:39;98044.25;;;-1.21;100.00
68508;BME280;55510;49.560;19.090;2022-11-12T05:09:53;98045.91;;;-1.20;100.00
68508;BME280;55510;49.560;19.090;2022-11-12T05:12:53;98044.16;;;-1.19;100.00
68508;BME280;55510;49.560;19.090;2022-11-12T05:15:54;98040.94;;;-1.23;100.00
68508;BME280;55510;49.560;19.090;2022-11-12T05:18:55;98047.28;;;-1.25;100.00
68508;BME280;55510;49.560;19.090;2022-11-12T05:21:55;98039.81;;;-1.30;100.00
68508;BME280;55510;49.560;19.090;2022-11-12T05:25:06;98042.56;;;-1.32;100.00
68508;BME280;55510;49.560;19.090;2022-11-12T05:28:07;98040.06;;;-1.33;100.00
68508;BME280;55510;49.560;19.090;2022-11-12T05:31:07;98045.03;;;-1.30;100.00
68508;BME280;55510;49.560;19.090;2022-11-12T05:34:08;98042.56;;;-1.32;100.00
68508;BME280;55510;49.560;19.090;2022-11-12T05:37:10;98052.88;;;-1.30;100.00
68508;BME280;55510;49.560;19.090;2022-11-12T05:40:12;98056.06;;;-1.26;100.00
68508;BME280;55510;49.560;19.090;2022-11-12T05:43:12;98055.34;;;-1.28;100.00
68508;BME280;55510;49.560;19.090;2022-11-12T05:46:13;98053.00;;;-1.32;100.00
68508;BME280;55510;49.560;19.090;2022-11-12T05:49:14;98055.63;;;-1.32;100.00
68508;BME280;55510;49.560;19.090;2022-11-12T05:52:14;98055.72;;;-1.33;100.00
68508;BME280;55510;49.560;19.090;2022-11-12T05:55:15;98059.28;;;-1.34;100.00
68508;BME280;55510;49.560;19.090;2022-11-12T05:58:16;98058.59;;;-1.36;100.00
68508;BME280;55510;49.560;19.090;2022-11-12T06:01:16;98067.50;;;-1.39;100.00
68508;BME280;55510;49.560;19.090;2022-11-12T06:04:17;98064.88;;;-1.39;100.00
68508;BME280;55510;49.560;19.090;2022-11-12T06:07:19;98062.88;;;-1.35;100.00
68508;BME280;55510;49.560;19.090;2022-11-12T06:10:20;98070.34;;;-1.30;100.00
68508;BME280;55510;49.560;19.090;2022-11-12T06:13:22;98071.16;;;-1.30;100.00
68508;BME280;55510;49.560;19.090;2022-11-12T06:16:23;98071.75;;;-1.26;100.00
68508;BME280;55510;49.560;19.090;2022-11-12T06:19:24;98068.97;;;-1.25;100.00
68508;BME280;55510;49.560;19.090;2022-11-12T06:22:27;98070.63;;;-1.24;100.00
68508;BME280;55510;49.560;19.090;2022-11-12T06:25:28;98066.81;;;-1.20;100.00
68508;BME280;55510;49.560;19.090;2022-11-12T06:28:29;98076.91;;;-1.15;100.00
68508;BME280;55510;49.560;19.090;2022-11-12T06:31:29;98079.00;;;-1.09;100.00
68508;BME280;55510;49.560;19.090;2022-11-12T06:34:30;98085.25;;;-1.00;100.00
68508;BME280;55510;49.560;19.090;2022-11-12T06:37:31;98081.97;;;-0.92;100.00
68508;BME280;55510;49.560;19.090;2022-11-12T06:40:31;98082.19;;;-0.84;100.00
68508;BME280;55510;49.560;19.090;2022-11-12T06:43:32;98084.13;;;-0.76;100.00
68508;BME280;55510;49.560;19.090;2022-11-12T06:46:34;98092.03;;;-0.66;100.00
68508;BME280;55510;49.560;19.090;2022-11-12T06:49:35;98085.50;;;-0.51;100.00
68508;BME280;55510;49.560;19.090;2022-11-12T06:52:36;98087.25;;;-0.30;100.00
68508;BME280;55510;49.560;19.090;2022-11-12T06:55:36;98090.78;;;0.00;100.00
68508;BME280;55510;49.560;19.090;2022-11-12T06:58:37;98085.19;;;0.44;100.00
68508;BME280;55510;49.560;19.090;2022-11-12T07:01:38;98088.88;;;1.10;100.00
68508;BME280;55510;49.560;19.090;2022-11-12T07:04:39;98098.59;;;1.48;96.99
68508;BME280;55510;49.560;19.090;2022-11-12T07:07:39;98101.03;;;1.97;95.01
68508;BME280;55510;49.560;19.090;2022-11-12T07:10:41;98097.94;;;3.28;90.44
68508;BME280;55510;49.560;19.090;2022-11-12T07:13:41;98102.78;;;4.70;84.79
68508;BME280;55510;49.560;19.090;2022-11-12T07:16:46;98113.50;;;5.18;81.06
68508;BME280;55510;49.560;19.090;2022-11-12T07:19:46;98101.47;;;5.32;79.57
68508;BME280;55510;49.560;19.090;2022-11-12T07:22:47;98098.78;;;5.49;80.31
68508;BME280;55510;49.560;19.090;2022-11-12T07:25:58;98098.47;;;4.69;81.07
68508;BME280;55510;49.560;19.090;2022-11-12T07:28:59;98101.22;;;3.83;83.60
68508;BME280;55510;49.560;19.090;2022-11-12T07:31:59;98098.56;;;3.22;86.18
68508;BME280;55510;49.560;19.090;2022-11-12T07:35:00;98093.72;;;2.91;87.30
68508;BME280;55510;49.560;19.090;2022-11-12T07:38:01;98100.16;;;2.70;88.11
68508;BME280;55510;49.560;19.090;2022-11-12T07:41:07;98103.75;;;2.51;88.48
68508;BME280;55510;49.560;19.090;2022-11-12T07:44:08;98100.75;;;2.46;89.21
68508;BME280;55510;49.560;19.090;2022-11-12T07:47:09;98110.13;;;2.49;89.74
68508;BME280;55510;49.560;19.090;2022-11-12T07:50:09;98096.97;;;2.49;89.99
68508;BME280;55510;49.560;19.090;2022-11-12T07:53:10;98101.78;;;2.53;90.70
68508;BME280;55510;49.560;19.090;2022-11-12T07:56:13;98102.31;;;2.57;90.52
68508;BME280;55510;49.560;19.090;2022-11-12T07:59:14;98096.44;;;2.63;90.96
68508;BME280;55510;49.560;19.090;2022-11-12T08:02:14;98096.31;;;2.65;91.69
68508;BME280;55510;49.560;19.090;2022-11-12T08:05:17;98091.97;;;2.73;91.25
68508;BME280;55510;49.560;19.090;2022-11-12T08:08:18;98092.75;;;2.92;89.83
68508;BME280;55510;49.560;19.090;2022-11-12T08:11:19;98098.53;;;3.14;89.37
68508;BME280;55510;49.560;19.090;2022-11-12T08:14:20;98094.06;;;3.41;88.71
68508;BME280;55510;49.560;19.090;2022-11-12T08:17:22;98097.56;;;3.76;88.27
68508;BME280;55510;49.560;19.090;2022-11-12T08:20:23;98096.16;;;3.98;86.30
68508;BME280;55510;49.560;19.090;2022-11-12T08:23:23;98100.25;;;6.00;81.74
68508;BME280;55510;49.560;19.090;2022-11-12T08:26:24;98103.22;;;7.15;73.24
68508;BME280;55510;49.560;19.090;2022-11-12T08:29:28;98100.25;;;8.23;73.03
68508;BME280;55510;49.560;19.090;2022-11-12T08:32:28;98102.34;;;10.07;60.78
68508;BME280;55510;49.560;19.090;2022-11-12T08:35:30;98100.69;;;10.41;59.61
68508;BME280;55510;49.560;19.090;2022-11-12T08:38:31;98102.84;;;10.86;59.65
68508;BME280;55510;49.560;19.090;2022-11-12T08:41:33;98109.34;;;10.63;60.37
68508;BME280;55510;49.560;19.090;2022-11-12T08:44:33;98107.88;;;10.05;60.40
68508;BME280;55510;49.560;19.090;2022-11-12T08:47:34;98106.16;;;9.27;60.64
68508;BME280;55510;49.560;19.090;2022-11-12T08:50:35;98110.09;;;9.31;63.29
68508;BME280;55510;49.560;19.090;2022-11-12T08:53:36;98102.00;;;9.18;62.45
68508;BME280;55510;49.560;19.090;2022-11-12T08:56:37;98117.69;;;8.69;63.44
68508;BME280;55510;49.560;19.090;2022-11-12T08:59:41;98108.69;;;8.48;65.86
68508;BME280;55510;49.560;19.090;2022-11-12T09:02:42;98115.91;;;8.03;66.67
68508;BME280;55510;49.560;19.090;2022-11-12T09:05:42;98120.47;;;8.09;67.50
68508;BME280;55510;49.560;19.090;2022-11-12T09:08:43;98122.09;;;8.10;66.64
68508;BME280;55510;49.560;19.090;2022-11-12T09:11:46;98117.94;;;8.52;66.53
68508;BME280;55510;49.560;19.090;2022-11-12T09:14:47;98120.81;;;9.16;63.16
68508;BME280;55510;49.560;19.090;2022-11-12T09:17:54;98113.25;;;8.54;65.92
68508;BME280;55510;49.560;19.090;2022-11-12T09:21:01;98115.38;;;8.44;66.79
68508;BME280;55510;49.560;19.090;2022-11-12T09:24:03;98111.75;;;8.67;66.34
68508;BME280;55510;49.560;19.090;2022-11-12T09:27:04;98114.63;;;8.65;66.39
68508;BME280;55510;49.560;19.090;2022-11-12T09:30:05;98109.97;;;8.74;66.35
68508;BME280;55510;49.560;19.090;2022-11-12T09:33:06;98110.06;;;8.81;66.35
68508;BME280;55510;49.560;19.090;2022-11-12T09:36:07;98110.50;;;8.48;66.09
68508;BME280;55510;49.560;19.090;2022-11-12T09:39:07;98109.97;;;8.52;67.21
68508;BME280;55510;49.560;19.090;2022-11-12T09:42:12;98105.56;;;8.60;66.11
68508;BME280;55510;49.560;19.090;2022-11-12T09:45:24;98108.09;;;8.68;66.58
68508;BME280;55510;49.560;19.090;2022-11-12T09:48:33;98102.13;;;9.60;64.20
68508;BME280;55510;49.560;19.090;2022-11-12T09:51:39;98104.28;;;9.84;63.24
68508;BME280;55510;49.560;19.090;2022-11-12T09:54:42;98099.19;;;9.26;65.83
68508;BME280;55510;49.560;19.090;2022-11-12T09:57:42;98102.59;;;8.91;66.30
68508;BME280;55510;49.560;19.090;2022-11-12T10:00:55;98102.00;;;9.18;66.83
68508;BME280;55510;49.560;19.090;2022-11-12T10:23:52;98091.13;;;12.33;57.66
68508;BME280;55510;49.560;19.090;2022-11-12T10:26:55;98090.13;;;12.67;55.33
68508;BME280;55510;49.560;19.090;2022-11-12T10:30:08;98093.94;;;12.84;53.47
68508;BME280;55510;49.560;19.090;2022-11-12T10:33:14;98089.31;;;13.24;54.38
68508;BME280;55510;49.560;19.090;2022-11-12T10:36:20;98089.75;;;13.71;53.56
68508;BME280;55510;49.560;19.090;2022-11-12T10:39:34;98080.81;;;13.96;51.01
68508;BME280;55510;49.560;19.090;2022-11-12T10:42:57;98087.91;;;15.01;48.69
68508;BME280;55510;49.560;19.090;2022-11-12T10:46:17;98094.72;;;15.63;48.01
68508;BME280;55510;49.560;19.090;2022-11-12T10:52:21;98093.41;;;17.51;41.52
68508;BME280;55510;49.560;19.090;2022-11-12T10:55:31;98087.38;;;17.27;44.04
68508;BME280;55510;49.560;19.090;2022-11-12T10:58:33;98083.03;;;18.72;40.67
68508;BME280;55510;49.560;19.090;2022-11-12T11:01:33;98086.44;;;20.82;37.19
68508;BME280;55510;49.560;19.090;2022-11-12T11:04:36;98088.53;;;20.75;34.63
68508;BME280;55510;49.560;19.090;2022-11-12T11:07:37;98089.16;;;20.97;36.49
68508;BME280;55510;49.560;19.090;2022-11-12T11:10:38;98084.56;;;22.86;32.63
68508;BME280;55510;49.560;19.090;2022-11-12T11:13:38;98091.00;;;23.30;30.89
68508;BME280;55510;49.560;19.090;2022-11-12T11:16:54;98081.66;;;24.01;31.05
68508;BME280;55510;49.560;19.090;2022-11-12T11:19:56;98077.25;;;24.05;30.92
68508;BME280;55510;49.560;19.090;2022-11-12T11:23:20;98076.22;;;23.47;31.95
68508;BME280;55510;49.560;19.090;2022-11-12T11:30:05;98051.75;;;25.30;29.50
68508;BME280;55510;49.560;19.090;2022-11-12T11:36:54;98049.94;;;25.25;29.31
68508;BME280;55510;49.560;19.090;2022-11-12T11:50:27;98044.41;;;27.25;25.51
68508;BME280;55510;49.560;19.090;2022-11-12T11:53:34;98048.91;;;27.52;25.58
68508;BME280;55510;49.560;19.090;2022-11-12T11:56:46;98039.69;;;28.46;25.67
68508;BME280;55510;49.560;19.090;2022-11-12T12:00:22;98038.53;;;29.00;24.21
68508;BME280;55510;49.560;19.090;2022-11-12T12:03:28;98038.72;;;28.69;24.40
68508;BME280;55510;49.560;19.090;2022-11-12T12:06:36;98025.16;;;28.46;24.84
68508;BME280;55510;49.560;19.090;2022-11-12T12:09:53;98027.50;;;27.94;26.00
68508;BME280;55510;49.560;19.090;2022-11-12T12:13:11;98018.38;;;26.59;26.51
68508;BME280;55510;49.560;19.090;2022-11-12T12:20:11;98017.19;;;24.97;29.72
68508;BME280;55510;49.560;19.090;2022-11-12T12:23:27;98018.13;;;24.35;30.38
68508;BME280;55510;49.560;19.090;2022-11-12T12:26:37;98009.88;;;23.97;31.04
68508;BME280;55510;49.560;19.090;2022-11-12T12:29:51;98016.75;;;24.13;30.94
68508;BME280;55510;49.560;19.090;2022-11-12T12:32:58;98013.47;;;24.36;30.62
68508;BME280;55510;49.560;19.090;2022-11-12T12:36:07;98017.47;;;24.00;30.33
68508;BME280;55510;49.560;19.090;2022-11-12T12:45:39;98003.25;;;24.08;29.26
68508;BME280;55510;49.560;19.090;2022-11-12T12:48:42;97999.00;;;23.53;29.50
68508;BME280;55510;49.560;19.090;2022-11-12T12:51:44;97995.94;;;21.71;32.03
68508;BME280;55510;49.560;19.090;2022-11-12T12:57:58;97987.13;;;20.88;33.44
68508;BME280;55510;49.560;19.090;2022-11-12T13:04:05;97988.38;;;18.73;37.01
68508;BME280;55510;49.560;19.090;2022-11-12T13:07:08;97988.00;;;18.04;37.43
68508;BME280;55510;49.560;19.090;2022-11-12T13:13:44;97989.00;;;16.63;41.08
68508;BME280;55510;49.560;19.090;2022-11-12T13:22:52;97985.03;;;16.19;42.57
68508;BME280;55510;49.560;19.090;2022-11-12T13:35:45;97990.34;;;15.02;46.63
68508;BME280;55510;49.560;19.090;2022-11-12T13:38:46;97990.94;;;15.28;45.90
68508;BME280;55510;49.560;19.090;2022-11-12T13:41:55;97992.28;;;15.54;44.55
68508;BME280;55510;49.560;19.090;2022-11-12T13:45:22;97989.88;;;14.81;46.34
68508;BME280;55510;49.560;19.090;2022-11-12T13:54:35;97989.56;;;13.67;49.49
68508;BME280;55510;49.560;19.090;2022-11-12T13:57:36;97987.59;;;13.37;50.06
68508;BME280;55510;49.560;19.090;2022-11-12T14:00:37;97984.38;;;13.10;50.92
68508;BME280;55510;49.560;19.090;2022-11-12T14:03:44;97989.78;;;12.77;52.34
68508;BME280;55510;49.560;19.090;2022-11-12T14:06:48;97984.28;;;12.47;53.87
68508;BME280;55510;49.560;19.090;2022-11-12T14:13:27;97986.59;;;11.91;55.66
68508;BME280;55510;49.560;19.090;2022-11-12T14:20:28;97991.31;;;11.30;57.66
68508;BME280;55510;49.560;19.090;2022-11-12T14:23:36;97973.75;;;11.02;58.90
68508;BME280;55510;49.560;19.090;2022-11-12T14:26:41;97983.81;;;10.73;60.15
68508;BME280;55510;49.560;19.090;2022-11-12T14:29:42;97979.28;;;10.40;60.92
68508;BME280;55510;49.560;19.090;2022-11-12T14:32:50;97973.66;;;10.08;61.88
68508;BME280;55510;49.560;19.090;2022-11-12T14:36:04;97975.19;;;9.75;63.32
68508;BME280;55510;49.560;19.090;2022-11-12T14:39:06;97977.50;;;9.43;64.67
68508;BME280;55510;49.560;19.090;2022-11-12T14:42:13;97971.66;;;9.19;65.67
68508;BME280;55510;49.560;19.090;2022-11-12T14:45:18;97963.75;;;8.97;66.54
68508;BME280;55510;49.560;19.090;2022-11-12T14:48:20;97974.75;;;8.66;69.06
68508;BME280;55510;49.560;19.090;2022-11-12T14:51:21;97969.84;;;8.41;70.28
68508;BME280;55510;49.560;19.090;2022-11-12T14:54:29;97968.09;;;8.11;71.33
68508;BME280;55510;49.560;19.090;2022-11-12T14:57:31;97967.47;;;7.88;72.10
68508;BME280;55510;49.560;19.090;2022-11-12T15:00:37;97964.50;;;7.61;73.41
68508;BME280;55510;49.560;19.090;2022-11-12T15:03:39;97964.97;;;7.34;76.07
68508;BME280;55510;49.560;19.090;2022-11-12T15:06:40;97974.63;;;6.97;78.84
68508;BME280;55510;49.560;19.090;2022-11-12T15:09:41;97968.06;;;6.93;78.78
68508;BME280;55510;49.560;19.090;2022-11-12T15:12:42;97972.06;;;6.74;78.88
68508;BME280;55510;49.560;19.090;2022-11-12T15:19:14;97973.28;;;6.24;83.29
68508;BME280;55510;49.560;19.090;2022-11-12T15:22:21;97977.03;;;6.07;82.23
68508;BME280;55510;49.560;19.090;2022-11-12T15:25:30;97979.75;;;5.90;82.31
68508;BME280;55510;49.560;19.090;2022-11-12T15:28:31;97980.16;;;5.71;83.68
68508;BME280;55510;49.560;19.090;2022-11-12T15:31:42;97982.75;;;5.47;86.52
68508;BME280;55510;49.560;19.090;2022-11-12T15:34:45;97971.75;;;5.35;86.87
68508;BME280;55510;49.560;19.090;2022-11-12T15:37:48;97975.50;;;5.41;87.83
68508;BME280;55510;49.560;19.090;2022-11-12T15:40:53;97981.97;;;5.39;88.03
68508;BME280;55510;49.560;19.090;2022-11-12T15:43:55;97972.09;;;5.32;87.96
68508;BME280;55510;49.560;19.090;2022-11-12T15:46:56;97985.31;;;5.24;87.70
68508;BME280;55510;49.560;19.090;2022-11-12T15:49:58;97980.22;;;5.14;87.82
68508;BME280;55510;49.560;19.090;2022-11-12T15:52:59;97981.41;;;5.03;88.08
68508;BME280;55510;49.560;19.090;2022-11-12T15:55:59;97980.94;;;4.91;88.16
68508;BME280;55510;49.560;19.090;2022-11-12T15:59:11;97983.75;;;4.82;88.41
68508;BME280;55510;49.560;19.090;2022-11-12T16:02:14;97991.34;;;4.68;88.84
68508;BME280;55510;49.560;19.090;2022-11-12T16:05:17;97991.84;;;4.55;88.90
68508;BME280;55510;49.560;19.090;2022-11-12T16:08:18;97987.75;;;4.44;89.59
68508;BME280;55510;49.560;19.090;2022-11-12T16:11:18;97992.31;;;4.34;90.19
68508;BME280;55510;49.560;19.090;2022-11-12T16:14:38;97997.91;;;4.06;90.51
68508;BME280;55510;49.560;19.090;2022-11-12T16:17:39;97996.41;;;3.95;90.49
68508;BME280;55510;49.560;19.090;2022-11-12T16:20:40;97990.44;;;3.76;90.77
68508;BME280;55510;49.560;19.090;2022-11-12T16:23:41;97990.53;;;3.58;91.69
68508;BME280;55510;49.560;19.090;2022-11-12T16:26:42;97988.16;;;3.47;91.46
68508;BME280;55510;49.560;19.090;2022-11-12T16:29:43;97993.88;;;3.34;91.40
68508;BME280;55510;49.560;19.090;2022-11-12T16:32:44;97994.97;;;3.23;92.26
68508;BME280;55510;49.560;19.090;2022-11-12T16:35:45;98002.00;;;3.14;92.65
68508;BME280;55510;49.560;19.090;2022-11-12T16:38:46;97999.47;;;3.04;93.48
68508;BME280;55510;49.560;19.090;2022-11-12T16:41:46;98000.56;;;2.94;93.96
68508;BME280;55510;49.560;19.090;2022-11-12T16:44:47;98002.44;;;2.83;94.04
68508;BME280;55510;49.560;19.090;2022-11-12T16:47:52;98000.91;;;2.72;94.82
68508;BME280;55510;49.560;19.090;2022-11-12T16:50:58;97993.94;;;2.63;94.83
68508;BME280;55510;49.560;19.090;2022-11-12T16:53:58;97993.88;;;2.55;95.71
68508;BME280;55510;49.560;19.090;2022-11-12T16:56:59;98001.69;;;2.46;95.60
68508;BME280;55510;49.560;19.090;2022-11-12T17:00:00;97992.78;;;2.39;95.79
68508;BME280;55510;49.560;19.090;2022-11-12T17:03:01;97995.16;;;2.32;96.08
68508;BME280;55510;49.560;19.090;2022-11-12T17:06:02;97995.03;;;2.16;95.87
68508;BME280;55510;49.560;19.090;2022-11-12T17:09:04;97990.56;;;1.98;96.41
68508;BME280;55510;49.560;19.090;2022-11-12T17:12:05;97989.81;;;1.88;96.99
68508;BME280;55510;49.560;19.090;2022-11-12T17:15:07;97996.34;;;1.84;97.63
68508;BME280;55510;49.560;19.090;2022-11-12T17:18:07;97997.63;;;1.80;97.63
68508;BME280;55510;49.560;19.090;2022-11-12T17:21:15;97995.41;;;1.75;97.84
68508;BME280;55510;49.560;19.090;2022-11-12T17:24:16;97998.63;;;1.69;98.75
68508;BME280;55510;49.560;19.090;2022-11-12T17:27:17;97997.00;;;1.68;98.84
68508;BME280;55510;49.560;19.090;2022-11-12T17:30:18;97998.63;;;1.69;99.26
68508;BME280;55510;49.560;19.090;2022-11-12T17:33:18;97995.34;;;1.67;99.34
68508;BME280;55510;49.560;19.090;2022-11-12T17:36:24;97998.13;;;1.65;99.92
68508;BME280;55510;49.560;19.090;2022-11-12T17:39:25;98000.88;;;1.64;100.00